sensor_id;sensor_type;location;lat;lon;timestamp;temperature;humidity
78886;DHT22;68269;52.514;5.722;2023-12-29T00:01:19;10.20;71.00
78886;DHT22;68269;52.514;5.722;2023-12-29T00:03:48;10.20;71.00
78886;DHT22;68269;52.514;5.722;2023-12-29T00:06:17;10.20;71.00
78886;DHT22;68269;52.514;5.722;2023-12-29T00:08:47;10.20;71.10
78886;DHT22;68269;52.514;5.722;2023-12-29T00:11:22;10.20;71.10
78886;DHT22;68269;52.514;5.722;2023-12-29T00:13:51;10.20;71.20
78886;DHT22;68269;52.514;5.722;2023-12-29T00:16:21;10.20;71.10
78886;DHT22;68269;52.514;5.722;2023-12-29T00:18:50;10.20;71.10
78886;DHT22;68269;52.514;5.722;2023-12-29T00:21:19;10.20;71.10
78886;DHT22;68269;52.514;5.722;2023-12-29T00:23:48;10.20;71.20
78886;DHT22;68269;52.514;5.722;2023-12-29T00:26:20;10.20;71.20
78886;DHT22;68269;52.514;5.722;2023-12-29T00:28:56;10.20;71.30
78886;DHT22;68269;52.514;5.722;2023-12-29T00:31:25;10.20;71.30
78886;DHT22;68269;52.514;5.722;2023-12-29T00:33:54;10.20;71.30
78886;DHT22;68269;52.514;5.722;2023-12-29T00:36:24;10.20;71.40
78886;DHT22;68269;52.514;5.722;2023-12-29T00:38:53;10.20;71.40
78886;DHT22;68269;52.514;5.722;2023-12-29T00:41:25;10.20;71.40
78886;DHT22;68269;52.514;5.722;2023-12-29T00:43:54;10.20;71.50
78886;DHT22;68269;52.514;5.722;2023-12-29T00:46:24;10.20;71.50
78886;DHT22;68269;52.514;5.722;2023-12-29T00:48:53;10.30;71.50
78886;DHT22;68269;52.514;5.722;2023-12-29T00:51:23;10.30;71.50
78886;DHT22;68269;52.514;5.722;2023-12-29T00:53:49;10.30;71.40
78886;DHT22;68269;52.514;5.722;2023-12-29T00:56:19;10.30;71.50
78886;DHT22;68269;52.514;5.722;2023-12-29T00:58:51;10.20;71.50
78886;DHT22;68269;52.514;5.722;2023-12-29T01:01:20;10.20;71.60
78886;DHT22;68269;52.514;5.722;2023-12-29T01:03:49;10.20;71.60
78886;DHT22;68269;52.514;5.722;2023-12-29T01:06:20;10.30;71.60
78886;DHT22;68269;52.514;5.722;2023-12-29T01:08:50;10.20;71.70
78886;DHT22;68269;52.514;5.722;2023-12-29T01:11:19;10.20;71.70
78886;DHT22;68269;52.514;5.722;2023-12-29T01:13:51;10.20;71.80
78886;DHT22;68269;52.514;5.722;2023-12-29T01:16:20;10.20;71.80
78886;DHT22;68269;52.514;5.722;2023-12-29T01:18:50;10.10;72.00
78886;DHT22;68269;52.514;5.722;2023-12-29T01:21:19;10.10;72.00
78886;DHT22;68269;52.514;5.722;2023-12-29T01:23:49;10.10;72.10
78886;DHT22;68269;52.514;5.722;2023-12-29T01:26:19;10.20;72.10
78886;DHT22;68269;52.514;5.722;2023-12-29T01:28:50;10.20;72.10
78886;DHT22;68269;52.514;5.722;2023-12-29T01:31:20;10.10;72.10
78886;DHT22;68269;52.514;5.722;2023-12-29T01:33:49;10.20;72.10
78886;DHT22;68269;52.514;5.722;2023-12-29T01:36:18;10.20;72.10
78886;DHT22;68269;52.514;5.722;2023-12-29T01:38:48;10.20;72.00
78886;DHT22;68269;52.514;5.722;2023-12-29T01:41:19;10.30;72.00
78886;DHT22;68269;52.514;5.722;2023-12-29T01:44:21;10.20;72.00
78886;DHT22;68269;52.514;5.722;2023-12-29T01:46:53;10.30;72.00
78886;DHT22;68269;52.514;5.722;2023-12-29T01:49:23;10.30;71.90
78886;DHT22;68269;52.514;5.722;2023-12-29T01:51:54;10.30;72.00
78886;DHT22;68269;52.514;5.722;2023-12-29T01:54:26;10.30;71.90
78886;DHT22;68269;52.514;5.722;2023-12-29T01:56:58;10.30;71.90
78886;DHT22;68269;52.514;5.722;2023-12-29T01:59:31;10.30;71.90
78886;DHT22;68269;52.514;5.722;2023-12-29T02:02:01;10.30;71.90
78886;DHT22;68269;52.514;5.722;2023-12-29T02:04:31;10.40;71.90
78886;DHT22;68269;52.514;5.722;2023-12-29T02:07:01;10.40;71.80
78886;DHT22;68269;52.514;5.722;2023-12-29T02:09:30;10.40;71.80
78886;DHT22;68269;52.514;5.722;2023-12-29T02:12:00;10.40;71.80
78886;DHT22;68269;52.514;5.722;2023-12-29T02:14:32;10.40;71.80
78886;DHT22;68269;52.514;5.722;2023-12-29T02:17:08;10.40;71.80
78886;DHT22;68269;52.514;5.722;2023-12-29T02:19:40;10.40;71.80
78886;DHT22;68269;52.514;5.722;2023-12-29T02:22:11;10.40;71.80
78886;DHT22;68269;52.514;5.722;2023-12-29T02:24:46;10.40;71.80
78886;DHT22;68269;52.514;5.722;2023-12-29T02:27:31;10.30;71.90
78886;DHT22;68269;52.514;5.722;2023-12-29T02:30:09;10.40;71.90
78886;DHT22;68269;52.514;5.722;2023-12-29T02:32:42;10.40;71.90
78886;DHT22;68269;52.514;5.722;2023-12-29T02:35:14;10.40;71.80
78886;DHT22;68269;52.514;5.722;2023-12-29T02:37:44;10.40;71.90
78886;DHT22;68269;52.514;5.722;2023-12-29T02:40:16;10.40;71.90
78886;DHT22;68269;52.514;5.722;2023-12-29T02:42:45;10.30;71.80
78886;DHT22;68269;52.514;5.722;2023-12-29T02:45:15;10.30;71.90
78886;DHT22;68269;52.514;5.722;2023-12-29T02:47:45;10.30;72.00
78886;DHT22;68269;52.514;5.722;2023-12-29T02:50:15;10.30;72.10
78886;DHT22;68269;52.514;5.722;2023-12-29T02:52:44;10.20;72.10
78886;DHT22;68269;52.514;5.722;2023-12-29T02:55:16;10.20;72.10
78886;DHT22;68269;52.514;5.722;2023-12-29T02:57:45;10.20;72.20
78886;DHT22;68269;52.514;5.722;2023-12-29T03:00:15;10.10;72.20
78886;DHT22;68269;52.514;5.722;2023-12-29T03:02:45;10.10;72.40
78886;DHT22;68269;52.514;5.722;2023-12-29T03:05:14;10.10;72.40
78886;DHT22;68269;52.514;5.722;2023-12-29T03:07:43;10.10;72.50
78886;DHT22;68269;52.514;5.722;2023-12-29T03:10:13;10.10;72.50
78886;DHT22;68269;52.514;5.722;2023-12-29T03:12:44;10.10;72.60
78886;DHT22;68269;52.514;5.722;2023-12-29T03:15:15;10.10;72.60
78886;DHT22;68269;52.514;5.722;2023-12-29T03:17:44;10.10;72.60
78886;DHT22;68269;52.514;5.722;2023-12-29T03:20:15;10.10;72.60
78886;DHT22;68269;52.514;5.722;2023-12-29T03:22:44;10.10;72.60
78886;DHT22;68269;52.514;5.722;2023-12-29T03:25:14;10.10;72.60
78886;DHT22;68269;52.514;5.722;2023-12-29T03:27:46;10.10;72.70
78886;DHT22;68269;52.514;5.722;2023-12-29T03:30:15;10.10;72.70
78886;DHT22;68269;52.514;5.722;2023-12-29T03:32:44;10.10;72.70
78886;DHT22;68269;52.514;5.722;2023-12-29T03:35:14;10.10;72.70
78886;DHT22;68269;52.514;5.722;2023-12-29T03:37:43;10.10;72.60
78886;DHT22;68269;52.514;5.722;2023-12-29T03:40:14;10.00;72.60
78886;DHT22;68269;52.514;5.722;2023-12-29T03:42:46;10.10;72.60
78886;DHT22;68269;52.514;5.722;2023-12-29T03:45:15;10.10;72.70
78886;DHT22;68269;52.514;5.722;2023-12-29T03:47:45;10.10;72.60
78886;DHT22;68269;52.514;5.722;2023-12-29T03:50:14;10.10;72.60
78886;DHT22;68269;52.514;5.722;2023-12-29T03:52:43;10.10;72.60
78886;DHT22;68269;52.514;5.722;2023-12-29T03:55:13;10.10;72.50
78886;DHT22;68269;52.514;5.722;2023-12-29T03:57:42;10.10;72.50
78886;DHT22;68269;52.514;5.722;2023-12-29T04:00:15;10.10;72.50
78886;DHT22;68269;52.514;5.722;2023-12-29T04:02:44;10.10;72.40
78886;DHT22;68269;52.514;5.722;2023-12-29T04:05:13;10.20;72.30
78886;DHT22;68269;52.514;5.722;2023-12-29T04:07:43;10.20;72.30
78886;DHT22;68269;52.514;5.722;2023-12-29T04:10:12;10.20;72.30
78886;DHT22;68269;52.514;5.722;2023-12-29T04:12:41;10.20;72.20
78886;DHT22;68269;52.514;5.722;2023-12-29T04:15:14;10.20;72.20
78886;DHT22;68269;52.514;5.722;2023-12-29T04:17:43;10.20;72.20
78886;DHT22;68269;52.514;5.722;2023-12-29T04:20:14;10.20;72.20
78886;DHT22;68269;52.514;5.722;2023-12-29T04:22:43;10.20;72.20
78886;DHT22;68269;52.514;5.722;2023-12-29T04:25:13;10.20;72.20
78886;DHT22;68269;52.514;5.722;2023-12-29T04:27:42;10.20;72.10
78886;DHT22;68269;52.514;5.722;2023-12-29T04:30:14;10.20;72.00
78886;DHT22;68269;52.514;5.722;2023-12-29T04:32:43;10.20;72.00
78886;DHT22;68269;52.514;5.722;2023-12-29T04:35:13;10.20;71.90
78886;DHT22;68269;52.514;5.722;2023-12-29T04:37:44;10.20;71.80
78886;DHT22;68269;52.514;5.722;2023-12-29T04:40:14;10.20;71.80
78886;DHT22;68269;52.514;5.722;2023-12-29T04:42:43;10.20;71.70
78886;DHT22;68269;52.514;5.722;2023-12-29T04:45:15;10.20;71.60
78886;DHT22;68269;52.514;5.722;2023-12-29T04:47:44;10.20;71.60
78886;DHT22;68269;52.514;5.722;2023-12-29T04:50:14;10.20;71.50
78886;DHT22;68269;52.514;5.722;2023-12-29T04:52:43;10.20;71.40
78886;DHT22;68269;52.514;5.722;2023-12-29T04:55:12;10.20;71.40
78886;DHT22;68269;52.514;5.722;2023-12-29T04:57:42;10.20;71.40
78886;DHT22;68269;52.514;5.722;2023-12-29T05:00:15;10.20;71.40
78886;DHT22;68269;52.514;5.722;2023-12-29T05:02:44;10.20;71.40
78886;DHT22;68269;52.514;5.722;2023-12-29T05:05:13;10.20;71.40
78886;DHT22;68269;52.514;5.722;2023-12-29T05:07:43;10.10;71.40
78886;DHT22;68269;52.514;5.722;2023-12-29T05:10:12;10.10;71.50
78886;DHT22;68269;52.514;5.722;2023-12-29T05:12:41;10.10;71.50
78886;DHT22;68269;52.514;5.722;2023-12-29T05:15:11;10.10;71.50
78886;DHT22;68269;52.514;5.722;2023-12-29T05:17:42;10.10;71.60
78886;DHT22;68269;52.514;5.722;2023-12-29T05:20:12;10.10;71.60
78886;DHT22;68269;52.514;5.722;2023-12-29T05:22:41;10.10;71.60
78886;DHT22;68269;52.514;5.722;2023-12-29T05:25:10;10.10;71.60
78886;DHT22;68269;52.514;5.722;2023-12-29T05:27:40;10.10;71.60
78886;DHT22;68269;52.514;5.722;2023-12-29T05:30:10;10.10;71.60
78886;DHT22;68269;52.514;5.722;2023-12-29T05:32:42;10.10;71.50
78886;DHT22;68269;52.514;5.722;2023-12-29T05:35:12;10.10;71.50
78886;DHT22;68269;52.514;5.722;2023-12-29T05:37:41;10.20;71.50
78886;DHT22;68269;52.514;5.722;2023-12-29T05:40:11;10.20;71.50
78886;DHT22;68269;52.514;5.722;2023-12-29T05:42:41;10.20;71.60
78886;DHT22;68269;52.514;5.722;2023-12-29T05:45:10;10.20;71.60
78886;DHT22;68269;52.514;5.722;2023-12-29T05:47:42;10.10;71.60
78886;DHT22;68269;52.514;5.722;2023-12-29T05:50:11;10.10;71.70
78886;DHT22;68269;52.514;5.722;2023-12-29T05:52:41;10.10;71.70
78886;DHT22;68269;52.514;5.722;2023-12-29T05:55:10;10.10;71.70
78886;DHT22;68269;52.514;5.722;2023-12-29T05:57:39;10.10;71.70
78886;DHT22;68269;52.514;5.722;2023-12-29T06:00:11;10.10;71.70
78886;DHT22;68269;52.514;5.722;2023-12-29T06:02:43;10.10;71.70
78886;DHT22;68269;52.514;5.722;2023-12-29T06:05:13;10.20;71.70
78886;DHT22;68269;52.514;5.722;2023-12-29T06:07:42;10.20;71.60
78886;DHT22;68269;52.514;5.722;2023-12-29T06:10:11;10.20;71.60
78886;DHT22;68269;52.514;5.722;2023-12-29T06:12:41;10.20;71.60
78886;DHT22;68269;52.514;5.722;2023-12-29T06:15:12;10.30;71.60
78886;DHT22;68269;52.514;5.722;2023-12-29T06:17:44;10.30;71.60
78886;DHT22;68269;52.514;5.722;2023-12-29T06:20:14;10.30;71.50
78886;DHT22;68269;52.514;5.722;2023-12-29T06:22:43;10.30;71.50
78886;DHT22;68269;52.514;5.722;2023-12-29T06:25:13;10.30;71.50
78886;DHT22;68269;52.514;5.722;2023-12-29T06:27:42;10.40;71.40
78886;DHT22;68269;52.514;5.722;2023-12-29T06:30:12;10.40;71.40
78886;DHT22;68269;52.514;5.722;2023-12-29T06:32:44;10.40;71.40
78886;DHT22;68269;52.514;5.722;2023-12-29T06:35:14;10.40;71.40
78886;DHT22;68269;52.514;5.722;2023-12-29T06:37:43;10.40;71.40
78886;DHT22;68269;52.514;5.722;2023-12-29T06:40:12;10.40;71.50
78886;DHT22;68269;52.514;5.722;2023-12-29T06:42:42;10.40;71.50
78886;DHT22;68269;52.514;5.722;2023-12-29T06:45:12;10.40;71.50
78886;DHT22;68269;52.514;5.722;2023-12-29T06:47:44;10.40;71.50
78886;DHT22;68269;52.514;5.722;2023-12-29T06:50:13;10.40;71.50
78886;DHT22;68269;52.514;5.722;2023-12-29T06:52:42;10.40;71.50
78886;DHT22;68269;52.514;5.722;2023-12-29T06:55:12;10.40;71.50
78886;DHT22;68269;52.514;5.722;2023-12-29T06:57:41;10.40;71.60
78886;DHT22;68269;52.514;5.722;2023-12-29T07:00:11;10.40;71.70
78886;DHT22;68269;52.514;5.722;2023-12-29T07:02:41;10.40;71.60
78886;DHT22;68269;52.514;5.722;2023-12-29T07:05:13;10.30;71.70
78886;DHT22;68269;52.514;5.722;2023-12-29T07:07:42;10.30;71.70
78886;DHT22;68269;52.514;5.722;2023-12-29T07:10:12;10.30;71.70
78886;DHT22;68269;52.514;5.722;2023-12-29T07:12:42;10.30;71.70
78886;DHT22;68269;52.514;5.722;2023-12-29T07:15:11;10.30;71.70
78886;DHT22;68269;52.514;5.722;2023-12-29T07:17:42;10.30;71.70
78886;DHT22;68269;52.514;5.722;2023-12-29T07:20:14;10.30;71.80
78886;DHT22;68269;52.514;5.722;2023-12-29T07:22:44;10.30;71.80
78886;DHT22;68269;52.514;5.722;2023-12-29T07:25:13;10.30;71.80
78886;DHT22;68269;52.514;5.722;2023-12-29T07:27:43;10.30;71.80
78886;DHT22;68269;52.514;5.722;2023-12-29T07:30:13;10.30;71.80
78886;DHT22;68269;52.514;5.722;2023-12-29T07:32:43;10.30;71.80
78886;DHT22;68269;52.514;5.722;2023-12-29T07:35:15;10.30;71.70
78886;DHT22;68269;52.514;5.722;2023-12-29T07:37:46;10.30;71.80
78886;DHT22;68269;52.514;5.722;2023-12-29T07:40:15;10.30;71.70
78886;DHT22;68269;52.514;5.722;2023-12-29T07:42:45;10.30;71.80
78886;DHT22;68269;52.514;5.722;2023-12-29T07:45:17;10.30;71.90
78886;DHT22;68269;52.514;5.722;2023-12-29T07:47:46;10.30;71.90
78886;DHT22;68269;52.514;5.722;2023-12-29T07:50:18;10.30;71.90
78886;DHT22;68269;52.514;5.722;2023-12-29T07:52:47;10.30;71.80
78886;DHT22;68269;52.514;5.722;2023-12-29T07:55:17;10.30;71.80
78886;DHT22;68269;52.514;5.722;2023-12-29T07:57:46;10.30;71.90
78886;DHT22;68269;52.514;5.722;2023-12-29T08:00:16;10.30;71.90
78886;DHT22;68269;52.514;5.722;2023-12-29T08:02:45;10.30;71.90
78886;DHT22;68269;52.514;5.722;2023-12-29T08:05:17;10.30;71.90
78886;DHT22;68269;52.514;5.722;2023-12-29T08:07:47;10.30;71.90
78886;DHT22;68269;52.514;5.722;2023-12-29T08:10:16;10.30;71.90
78886;DHT22;68269;52.514;5.722;2023-12-29T08:12:45;10.30;71.90
78886;DHT22;68269;52.514;5.722;2023-12-29T08:15:15;10.30;71.90
78886;DHT22;68269;52.514;5.722;2023-12-29T08:17:44;10.30;71.90
78886;DHT22;68269;52.514;5.722;2023-12-29T08:20:13;10.30;71.90
78886;DHT22;68269;52.514;5.722;2023-12-29T08:22:45;10.30;71.90
78886;DHT22;68269;52.514;5.722;2023-12-29T08:25:15;10.30;71.90
78886;DHT22;68269;52.514;5.722;2023-12-29T08:27:44;10.30;72.00
78886;DHT22;68269;52.514;5.722;2023-12-29T08:30:13;10.30;72.00
78886;DHT22;68269;52.514;5.722;2023-12-29T08:32:43;10.30;72.00
78886;DHT22;68269;52.514;5.722;2023-12-29T08:35:12;10.40;72.00
78886;DHT22;68269;52.514;5.722;2023-12-29T08:37:41;10.30;72.00
78886;DHT22;68269;52.514;5.722;2023-12-29T08:40:13;10.30;72.00
78886;DHT22;68269;52.514;5.722;2023-12-29T08:42:43;10.30;72.10
78886;DHT22;68269;52.514;5.722;2023-12-29T08:45:12;10.30;72.20
78886;DHT22;68269;52.514;5.722;2023-12-29T08:47:41;10.30;72.20
78886;DHT22;68269;52.514;5.722;2023-12-29T08:50:10;10.30;72.20
78886;DHT22;68269;52.514;5.722;2023-12-29T08:52:40;10.30;72.20
78886;DHT22;68269;52.514;5.722;2023-12-29T08:55:10;10.30;72.20
78886;DHT22;68269;52.514;5.722;2023-12-29T08:57:42;10.30;72.30
78886;DHT22;68269;52.514;5.722;2023-12-29T09:00:12;10.30;72.30
78886;DHT22;68269;52.514;5.722;2023-12-29T09:02:41;10.20;72.40
78886;DHT22;68269;52.514;5.722;2023-12-29T09:05:10;10.10;72.50
78886;DHT22;68269;52.514;5.722;2023-12-29T09:07:40;10.10;72.70
78886;DHT22;68269;52.514;5.722;2023-12-29T09:10:09;10.10;72.80
78886;DHT22;68269;52.514;5.722;2023-12-29T09:12:43;10.00;72.80
78886;DHT22;68269;52.514;5.722;2023-12-29T09:15:13;10.10;72.80
78886;DHT22;68269;52.514;5.722;2023-12-29T09:17:42;10.10;72.90
78886;DHT22;68269;52.514;5.722;2023-12-29T09:20:11;10.10;72.90
78886;DHT22;68269;52.514;5.722;2023-12-29T09:22:41;10.10;72.90
78886;DHT22;68269;52.514;5.722;2023-12-29T09:25:10;10.10;72.90
78886;DHT22;68269;52.514;5.722;2023-12-29T09:27:39;10.20;72.90
78886;DHT22;68269;52.514;5.722;2023-12-29T09:30:13;10.10;72.90
78886;DHT22;68269;52.514;5.722;2023-12-29T09:32:42;10.20;72.90
78886;DHT22;68269;52.514;5.722;2023-12-29T09:35:11;10.20;72.90
78886;DHT22;68269;52.514;5.722;2023-12-29T09:37:41;10.20;72.90
78886;DHT22;68269;52.514;5.722;2023-12-29T09:40:11;10.20;72.90
78886;DHT22;68269;52.514;5.722;2023-12-29T09:42:43;10.30;72.90
78886;DHT22;68269;52.514;5.722;2023-12-29T09:45:21;10.30;72.80
78886;DHT22;68269;52.514;5.722;2023-12-29T09:47:52;10.30;72.80
78886;DHT22;68269;52.514;5.722;2023-12-29T09:50:23;10.30;72.80
78886;DHT22;68269;52.514;5.722;2023-12-29T09:52:54;10.30;72.80
78886;DHT22;68269;52.514;5.722;2023-12-29T09:55:24;10.30;72.80
78886;DHT22;68269;52.514;5.722;2023-12-29T09:57:55;10.40;72.80
78886;DHT22;68269;52.514;5.722;2023-12-29T10:00:27;10.40;72.90
78886;DHT22;68269;52.514;5.722;2023-12-29T10:02:56;10.40;72.90
78886;DHT22;68269;52.514;5.722;2023-12-29T10:05:26;10.40;72.90
78886;DHT22;68269;52.514;5.722;2023-12-29T10:07:57;10.40;72.90
78886;DHT22;68269;52.514;5.722;2023-12-29T10:10:28;10.40;72.90
78886;DHT22;68269;52.514;5.722;2023-12-29T10:12:59;10.40;72.90
78886;DHT22;68269;52.514;5.722;2023-12-29T10:15:37;10.40;72.90
78886;DHT22;68269;52.514;5.722;2023-12-29T10:18:10;10.50;72.90
78886;DHT22;68269;52.514;5.722;2023-12-29T10:20:48;10.50;72.80
78886;DHT22;68269;52.514;5.722;2023-12-29T10:23:22;10.50;72.70
78886;DHT22;68269;52.514;5.722;2023-12-29T10:25:54;10.50;72.80
78886;DHT22;68269;52.514;5.722;2023-12-29T10:28:23;10.50;72.80
78886;DHT22;68269;52.514;5.722;2023-12-29T10:30:55;10.50;72.80
78886;DHT22;68269;52.514;5.722;2023-12-29T10:33:24;10.50;72.90
78886;DHT22;68269;52.514;5.722;2023-12-29T10:35:59;10.50;72.80
78886;DHT22;68269;52.514;5.722;2023-12-29T10:38:29;10.50;72.90
78886;DHT22;68269;52.514;5.722;2023-12-29T10:41:11;10.50;72.90
78886;DHT22;68269;52.514;5.722;2023-12-29T10:43:41;10.60;72.90
78886;DHT22;68269;52.514;5.722;2023-12-29T10:46:13;10.60;72.90
78886;DHT22;68269;52.514;5.722;2023-12-29T10:48:42;10.60;72.90
78886;DHT22;68269;52.514;5.722;2023-12-29T10:51:11;10.60;72.90
78886;DHT22;68269;52.514;5.722;2023-12-29T10:53:41;10.70;72.90
78886;DHT22;68269;52.514;5.722;2023-12-29T10:56:17;10.70;72.90
78886;DHT22;68269;52.514;5.722;2023-12-29T10:58:57;10.80;72.80
78886;DHT22;68269;52.514;5.722;2023-12-29T11:01:33;10.80;72.80
78886;DHT22;68269;52.514;5.722;2023-12-29T11:04:04;10.80;72.70
78886;DHT22;68269;52.514;5.722;2023-12-29T11:06:40;10.90;72.70
78886;DHT22;68269;52.514;5.722;2023-12-29T11:09:11;10.90;72.70
78886;DHT22;68269;52.514;5.722;2023-12-29T11:11:38;10.90;72.60
78886;DHT22;68269;52.514;5.722;2023-12-29T11:14:10;10.90;72.60
78886;DHT22;68269;52.514;5.722;2023-12-29T11:16:43;10.90;72.70
78886;DHT22;68269;52.514;5.722;2023-12-29T11:19:13;10.90;72.60
78886;DHT22;68269;52.514;5.722;2023-12-29T11:21:45;11.00;72.50
78886;DHT22;68269;52.514;5.722;2023-12-29T11:24:14;11.00;72.50
78886;DHT22;68269;52.514;5.722;2023-12-29T11:26:44;11.00;72.50
78886;DHT22;68269;52.514;5.722;2023-12-29T11:29:13;11.00;72.30
78886;DHT22;68269;52.514;5.722;2023-12-29T11:31:47;11.10;72.20
78886;DHT22;68269;52.514;5.722;2023-12-29T11:34:23;11.10;72.10
78886;DHT22;68269;52.514;5.722;2023-12-29T11:37:02;11.10;72.00
78886;DHT22;68269;52.514;5.722;2023-12-29T11:39:40;11.10;71.90
78886;DHT22;68269;52.514;5.722;2023-12-29T11:42:19;11.10;71.80
78886;DHT22;68269;52.514;5.722;2023-12-29T11:44:49;11.10;71.70
78886;DHT22;68269;52.514;5.722;2023-12-29T11:47:39;11.10;71.70
78886;DHT22;68269;52.514;5.722;2023-12-29T11:50:08;11.10;71.60
78886;DHT22;68269;52.514;5.722;2023-12-29T11:52:38;11.10;71.60
78886;DHT22;68269;52.514;5.722;2023-12-29T11:55:09;11.10;71.50
78886;DHT22;68269;52.514;5.722;2023-12-29T11:57:38;11.10;71.40
78886;DHT22;68269;52.514;5.722;2023-12-29T12:00:09;11.10;71.40
78886;DHT22;68269;52.514;5.722;2023-12-29T12:02:41;11.10;71.30
78886;DHT22;68269;52.514;5.722;2023-12-29T12:05:10;11.10;71.20
78886;DHT22;68269;52.514;5.722;2023-12-29T12:07:57;11.10;71.20
78886;DHT22;68269;52.514;5.722;2023-12-29T12:10:31;11.10;71.00
78886;DHT22;68269;52.514;5.722;2023-12-29T12:13:04;11.10;70.90
78886;DHT22;68269;52.514;5.722;2023-12-29T12:15:35;11.10;70.80
78886;DHT22;68269;52.514;5.722;2023-12-29T12:18:11;11.10;70.80
78886;DHT22;68269;52.514;5.722;2023-12-29T12:20:40;11.10;70.70
78886;DHT22;68269;52.514;5.722;2023-12-29T12:23:11;11.10;70.70
78886;DHT22;68269;52.514;5.722;2023-12-29T12:25:46;11.10;70.60
78886;DHT22;68269;52.514;5.722;2023-12-29T12:28:15;11.10;70.50
78886;DHT22;68269;52.514;5.722;2023-12-29T12:30:45;11.10;70.50
78886;DHT22;68269;52.514;5.722;2023-12-29T12:33:17;11.10;70.40
78886;DHT22;68269;52.514;5.722;2023-12-29T12:35:46;11.10;70.30
78886;DHT22;68269;52.514;5.722;2023-12-29T12:38:27;11.10;70.30
78886;DHT22;68269;52.514;5.722;2023-12-29T12:41:09;11.10;70.30
78886;DHT22;68269;52.514;5.722;2023-12-29T12:43:41;11.00;70.10
78886;DHT22;68269;52.514;5.722;2023-12-29T12:46:15;11.00;70.10
78886;DHT22;68269;52.514;5.722;2023-12-29T12:48:47;11.00;70.00
78886;DHT22;68269;52.514;5.722;2023-12-29T12:51:19;11.00;69.90
78886;DHT22;68269;52.514;5.722;2023-12-29T12:53:49;11.10;69.90
78886;DHT22;68269;52.514;5.722;2023-12-29T12:56:19;11.00;69.80
78886;DHT22;68269;52.514;5.722;2023-12-29T12:58:49;11.10;69.80
78886;DHT22;68269;52.514;5.722;2023-12-29T13:01:18;11.10;69.70
78886;DHT22;68269;52.514;5.722;2023-12-29T13:03:50;11.10;69.70
78886;DHT22;68269;52.514;5.722;2023-12-29T13:06:21;11.10;69.60
78886;DHT22;68269;52.514;5.722;2023-12-29T13:08:50;11.10;69.60
78886;DHT22;68269;52.514;5.722;2023-12-29T13:11:20;11.20;69.50
78886;DHT22;68269;52.514;5.722;2023-12-29T13:13:52;11.10;69.40
78886;DHT22;68269;52.514;5.722;2023-12-29T13:16:30;11.10;69.40
78886;DHT22;68269;52.514;5.722;2023-12-29T13:19:18;11.10;69.30
78886;DHT22;68269;52.514;5.722;2023-12-29T13:21:48;11.20;69.20
78886;DHT22;68269;52.514;5.722;2023-12-29T13:24:17;11.20;69.20
78886;DHT22;68269;52.514;5.722;2023-12-29T13:26:47;11.20;69.10
78886;DHT22;68269;52.514;5.722;2023-12-29T13:29:19;11.20;69.00
78886;DHT22;68269;52.514;5.722;2023-12-29T13:31:53;11.20;69.00
78886;DHT22;68269;52.514;5.722;2023-12-29T13:34:32;11.10;69.00
78886;DHT22;68269;52.514;5.722;2023-12-29T13:37:05;11.10;69.00
78886;DHT22;68269;52.514;5.722;2023-12-29T13:39:38;11.10;69.10
78886;DHT22;68269;52.514;5.722;2023-12-29T13:42:10;11.10;69.10
78886;DHT22;68269;52.514;5.722;2023-12-29T13:44:42;11.00;69.20
78886;DHT22;68269;52.514;5.722;2023-12-29T13:47:12;11.00;69.10
78886;DHT22;68269;52.514;5.722;2023-12-29T13:49:45;11.00;69.10
78886;DHT22;68269;52.514;5.722;2023-12-29T13:52:15;11.00;69.20
78886;DHT22;68269;52.514;5.722;2023-12-29T13:54:45;11.00;69.10
78886;DHT22;68269;52.514;5.722;2023-12-29T13:57:14;11.00;69.20
78886;DHT22;68269;52.514;5.722;2023-12-29T13:59:43;11.00;69.20
78886;DHT22;68269;52.514;5.722;2023-12-29T14:02:20;11.00;69.30
78886;DHT22;68269;52.514;5.722;2023-12-29T14:07:53;10.90;69.30
78886;DHT22;68269;52.514;5.722;2023-12-29T14:10:26;10.90;69.50
78886;DHT22;68269;52.514;5.722;2023-12-29T14:13:04;10.90;69.50
78886;DHT22;68269;52.514;5.722;2023-12-29T14:15:35;10.90;69.50
78886;DHT22;68269;52.514;5.722;2023-12-29T14:18:15;10.90;69.60
78886;DHT22;68269;52.514;5.722;2023-12-29T14:20:50;10.80;69.60
78886;DHT22;68269;52.514;5.722;2023-12-29T14:23:22;10.90;69.60
78886;DHT22;68269;52.514;5.722;2023-12-29T14:25:52;10.80;69.60
78886;DHT22;68269;52.514;5.722;2023-12-29T14:28:21;10.80;69.60
78886;DHT22;68269;52.514;5.722;2023-12-29T14:31:01;10.80;69.60
78886;DHT22;68269;52.514;5.722;2023-12-29T14:33:32;10.80;69.60
78886;DHT22;68269;52.514;5.722;2023-12-29T14:36:03;10.80;69.60
78886;DHT22;68269;52.514;5.722;2023-12-29T14:38:35;10.80;69.60
78886;DHT22;68269;52.514;5.722;2023-12-29T14:41:04;10.80;69.60
78886;DHT22;68269;52.514;5.722;2023-12-29T14:43:34;10.80;69.60
78886;DHT22;68269;52.514;5.722;2023-12-29T14:46:04;10.80;69.70
78886;DHT22;68269;52.514;5.722;2023-12-29T14:48:33;10.70;69.70
78886;DHT22;68269;52.514;5.722;2023-12-29T14:51:03;10.70;69.70
78886;DHT22;68269;52.514;5.722;2023-12-29T14:53:35;10.70;69.70
78886;DHT22;68269;52.514;5.722;2023-12-29T14:56:05;10.70;69.80
78886;DHT22;68269;52.514;5.722;2023-12-29T14:58:34;10.70;69.80
78886;DHT22;68269;52.514;5.722;2023-12-29T15:01:04;10.70;69.80
78886;DHT22;68269;52.514;5.722;2023-12-29T15:03:34;10.70;69.90
78886;DHT22;68269;52.514;5.722;2023-12-29T15:06:04;10.60;69.80
78886;DHT22;68269;52.514;5.722;2023-12-29T15:08:36;10.60;69.80
78886;DHT22;68269;52.514;5.722;2023-12-29T15:11:06;10.50;69.80
78886;DHT22;68269;52.514;5.722;2023-12-29T15:13:35;10.50;69.70
78886;DHT22;68269;52.514;5.722;2023-12-29T15:16:05;10.40;69.60
78886;DHT22;68269;52.514;5.722;2023-12-29T15:18:36;10.30;69.50
78886;DHT22;68269;52.514;5.722;2023-12-29T15:21:05;10.20;69.40
78886;DHT22;68269;52.514;5.722;2023-12-29T15:23:37;10.10;69.40
78886;DHT22;68269;52.514;5.722;2023-12-29T15:26:06;10.00;69.30
78886;DHT22;68269;52.514;5.722;2023-12-29T15:28:35;10.00;69.20
78886;DHT22;68269;52.514;5.722;2023-12-29T15:31:05;10.00;69.20
78886;DHT22;68269;52.514;5.722;2023-12-29T15:33:37;9.90;69.10
78886;DHT22;68269;52.514;5.722;2023-12-29T15:36:07;9.80;69.10
78886;DHT22;68269;52.514;5.722;2023-12-29T15:38:43;9.80;69.00
78886;DHT22;68269;52.514;5.722;2023-12-29T15:41:12;9.80;68.90
78886;DHT22;68269;52.514;5.722;2023-12-29T15:43:41;9.80;68.90
78886;DHT22;68269;52.514;5.722;2023-12-29T15:46:13;9.80;68.70
78886;DHT22;68269;52.514;5.722;2023-12-29T15:48:43;9.80;68.70
78886;DHT22;68269;52.514;5.722;2023-12-29T15:51:12;9.80;68.60
78886;DHT22;68269;52.514;5.722;2023-12-29T15:53:44;9.80;68.50
78886;DHT22;68269;52.514;5.722;2023-12-29T15:56:17;9.80;68.40
78886;DHT22;68269;52.514;5.722;2023-12-29T15:58:47;9.80;68.40